Time;durP1;ratioP1;P1;durP2;ratioP2;P2;SDS_P1;SDS_P2;PMS_P1;PMS_P2;Temp;Humidity;BMP_temperature;BMP_pressure;BME280_temperature;BME280_humidity;BME280_pressure;Samples;Min_cycle;Max_cycle;Signal;HPM_P1;HPM_P2
2023/04/23 00:01:43;;;;;;;6.78;2.65;;;11.00;99.90;;;;;;4989700;28;20052;-52
2023/04/23 00:04:09;;;;;;;7.82;2.13;;;11.10;99.90;;;;;;4990004;28;20061;-52
2023/04/23 00:06:36;;;;;;;6.75;1.77;;;11.10;99.90;;;;;;4976183;28;20124;-51
2023/04/23 00:09:03;;;;;;;4.50;1.75;;;11.10;99.90;;;;;;5000055;28;20141;-54
2023/04/23 00:11:30;;;;;;;10.65;2.70;;;11.10;99.90;;;;;;4993004;28;20048;-57
2023/04/23 00:13:57;;;;;;;8.68;1.63;;;11.00;99.90;;;;;;5000557;28;20056;-53
2023/04/23 00:16:24;;;;;;;8.98;2.28;;;11.00;99.90;;;;;;5002266;28;20050;-54
2023/04/23 00:18:51;;;;;;;7.18;1.40;;;11.00;99.90;;;;;;5008957;28;20054;-54
2023/04/23 00:21:17;;;;;;;3.95;1.25;;;11.00;99.90;;;;;;5008140;28;20048;-54
2023/04/23 00:23:44;;;;;;;9.35;1.77;;;11.00;99.90;;;;;;4998316;28;20601;-55
2023/04/23 00:26:11;;;;;;;6.20;1.33;;;11.00;99.90;;;;;;5007971;28;20050;-54
2023/04/23 00:28:37;;;;;;;9.35;1.83;;;11.00;99.90;;;;;;5004197;28;20129;-54
2023/04/23 00:31:04;;;;;;;10.77;1.38;;;11.10;99.90;;;;;;4989949;28;20137;-52
2023/04/23 00:33:31;;;;;;;7.40;1.45;;;11.10;99.90;;;;;;4990008;28;20050;-54
2023/04/23 00:35:58;;;;;;;4.65;1.27;;;11.10;99.90;;;;;;4989999;28;20077;-52
2023/04/23 00:38:25;;;;;;;5.35;1.65;;;11.10;99.90;;;;;;5000985;28;20518;-52
2023/04/23 00:40:52;;;;;;;5.55;1.42;;;11.10;99.90;;;;;;5009349;28;20049;-53
2023/04/23 00:43:19;;;;;;;2.92;1.20;;;11.10;99.90;;;;;;4999813;28;20064;-54
2023/04/23 00:45:46;;;;;;;6.15;1.15;;;11.10;99.90;;;;;;5001279;28;20050;-54
2023/04/23 00:48:13;;;;;;;7.65;1.40;;;11.00;99.90;;;;;;5005047;28;20049;-55
2023/04/23 00:50:40;;;;;;;8.73;2.42;;;11.00;99.90;;;;;;4993073;28;20873;-55
2023/04/23 00:53:07;;;;;;;10.50;2.30;;;11.00;99.90;;;;;;4993235;28;20043;-54
2023/04/23 00:55:34;;;;;;;6.43;2.45;;;11.00;99.90;;;;;;5001730;28;20058;-55
2023/04/23 00:58:01;;;;;;;12.75;2.40;;;11.00;99.90;;;;;;5004377;28;20697;-55
2023/04/23 01:00:28;;;;;;;11.75;3.83;;;11.00;99.90;;;;;;4998409;28;20133;-54
2023/04/23 01:02:54;;;;;;;10.23;2.97;;;10.80;99.90;;;;;;4989185;28;20050;-55
2023/04/23 01:05:21;;;;;;;11.32;3.38;;;11.00;99.90;;;;;;4987745;28;20065;-54
2023/04/23 01:07:48;;;;;;;13.15;2.63;;;11.00;99.90;;;;;;4988422;28;20088;-56
2023/04/23 01:10:16;;;;;;;8.10;2.38;;;11.00;99.90;;;;;;4652161;28;10000149;-61
2023/04/23 01:12:43;;;;;;;7.05;1.60;;;11.00;99.90;;;;;;5007576;28;20042;-54
2023/04/23 01:15:10;;;;;;;11.57;1.60;;;11.00;99.90;;;;;;5002599;28;20556;-55
2023/04/23 01:17:37;;;;;;;10.50;2.00;;;11.00;99.90;;;;;;5008560;28;20049;-54
2023/04/23 01:20:05;;;;;;;9.13;1.92;;;11.10;99.90;;;;;;5002964;28;20595;-53
2023/04/23 01:22:35;;;;;;;14.05;2.67;;;11.10;99.90;;;;;;4989526;28;20046;-54
2023/04/23 01:25:02;;;;;;;10.68;2.20;;;11.10;99.90;;;;;;4992998;28;20482;-56
2023/04/23 01:27:29;;;;;;;10.05;1.80;;;11.10;99.90;;;;;;5009046;28;20137;-55
2023/04/23 01:29:56;;;;;;;11.25;1.35;;;11.00;99.90;;;;;;5003221;28;20144;-54
2023/04/23 01:32:22;;;;;;;13.43;2.17;;;11.00;99.90;;;;;;4999332;28;20042;-56
2023/04/23 01:34:49;;;;;;;7.35;2.10;;;11.00;99.90;;;;;;4989750;28;20070;-60
2023/04/23 01:37:16;;;;;;;6.40;1.42;;;11.00;99.90;;;;;;5004719;28;20423;-61
2023/04/23 01:39:43;;;;;;;6.55;1.42;;;10.90;99.90;;;;;;5002528;28;20042;-55
2023/04/23 01:42:10;;;;;;;6.28;1.33;;;10.90;99.90;;;;;;5001373;28;20133;-56
2023/04/23 01:44:36;;;;;;;8.13;1.42;;;10.90;99.90;;;;;;5004061;28;20054;-56
2023/04/23 01:47:03;;;;;;;8.25;1.92;;;10.90;99.90;;;;;;5007932;28;20140;-56
2023/04/23 01:49:32;;;;;;;7.50;1.55;;;10.90;99.90;;;;;;5006905;28;20065;-55
2023/04/23 01:51:59;;;;;;;7.75;1.63;;;10.90;99.90;;;;;;4997205;28;20145;-55
2023/04/23 01:54:26;;;;;;;8.25;1.73;;;10.90;99.90;;;;;;5006612;28;20137;-55
2023/04/23 01:56:54;;;;;;;6.63;1.48;;;10.80;99.90;;;;;;5001046;28;20568;-56
2023/04/23 01:59:21;;;;;;;8.02;1.40;;;10.90;99.90;;;;;;5007577;28;20496;-55
2023/04/23 02:01:48;;;;;;;11.23;1.85;;;10.80;99.90;;;;;;4996152;28;20050;-56
2023/04/23 02:04:15;;;;;;;8.20;1.20;;;10.80;99.90;;;;;;5006632;28;20054;-55
2023/04/23 02:06:46;;;;;;;7.28;1.23;;;10.90;99.90;;;;;;5007794;28;20042;-55
2023/04/23 02:09:12;;;;;;;9.75;1.60;;;10.90;99.90;;;;;;5010888;28;20042;-56
2023/04/23 02:11:39;;;;;;;3.38;1.20;;;10.90;99.90;;;;;;4999847;28;20060;-56
2023/04/23 02:14:06;;;;;;;8.55;1.70;;;10.90;99.90;;;;;;4994711;28;20055;-56
2023/04/23 02:16:33;;;;;;;7.10;1.60;;;10.90;99.90;;;;;;5005586;28;20073;-56
2023/04/23 02:19:00;;;;;;;5.07;1.35;;;10.90;99.90;;;;;;4996527;28;20046;-55
2023/04/23 02:21:28;;;;;;;8.57;1.40;;;10.90;99.90;;;;;;5003386;28;20100;-57
2023/04/23 02:23:55;;;;;;;8.25;1.75;;;10.90;99.90;;;;;;5002481;28;20168;-57
2023/04/23 02:26:22;;;;;;;8.02;1.67;;;10.90;99.90;;;;;;5001098;28;20503;-56
2023/04/23 02:28:49;;;;;;;12.10;2.28;;;10.90;99.90;;;;;;5008922;28;20046;-56
2023/04/23 02:31:16;;;;;;;9.95;1.77;;;10.90;99.90;;;;;;5010508;28;20057;-55
2023/04/23 02:33:43;;;;;;;17.02;3.05;;;10.90;99.90;;;;;;5003070;28;20053;-57
2023/04/23 02:36:11;;;;;;;9.88;2.22;;;11.00;99.90;;;;;;5004349;28;20481;-55
2023/04/23 02:38:41;;;;;;;13.90;2.35;;;10.90;99.90;;;;;;5005039;28;20042;-56
2023/04/23 02:41:08;;;;;;;11.73;1.67;;;11.00;99.90;;;;;;4995907;28;20050;-55
2023/04/23 02:43:34;;;;;;;12.68;3.75;;;11.00;99.90;;;;;;4978371;28;20085;-55
2023/04/23 02:46:07;;;;;;;14.23;2.40;;;11.00;99.90;;;;;;4996107;28;20142;-58
2023/04/23 02:48:39;;;;;;;10.68;1.58;;;11.00;99.90;;;;;;5000732;28;20630;-56
2023/04/23 02:51:07;;;;;;;15.32;2.13;;;11.00;99.90;;;;;;5014013;28;20068;-55
2023/04/23 02:53:33;;;;;;;15.82;1.92;;;11.00;99.90;;;;;;4999224;28;20137;-56
2023/04/23 02:56:01;;;;;;;7.85;3.33;;;11.00;99.90;;;;;;5009045;28;20045;-56
2023/04/23 02:58:28;;;;;;;14.70;2.70;;;11.00;99.90;;;;;;5002139;28;20677;-53
2023/04/23 03:00:55;;;;;;;12.05;3.53;;;11.00;99.90;;;;;;5014589;28;20054;-57
2023/04/23 03:03:25;;;;;;;9.77;1.65;;;11.00;99.90;;;;;;5009818;28;20074;-54
2023/04/23 03:05:52;;;;;;;9.48;2.75;;;11.00;99.90;;;;;;4995253;28;20556;-57
2023/04/23 03:08:19;;;;;;;9.85;1.73;;;11.00;99.90;;;;;;4999420;28;20046;-56
2023/04/23 03:10:46;;;;;;;12.20;2.15;;;11.00;99.90;;;;;;5013318;28;20096;-55
2023/04/23 03:13:12;;;;;;;10.45;1.77;;;11.00;99.90;;;;;;5001859;28;20047;-55
2023/04/23 03:15:40;;;;;;;7.53;1.98;;;11.00;99.90;;;;;;5004466;28;20121;-56
2023/04/23 03:18:07;;;;;;;9.38;1.92;;;11.00;99.90;;;;;;5007282;28;20056;-55
2023/04/23 03:20:34;;;;;;;6.82;1.73;;;11.00;99.90;;;;;;4993256;28;20054;-55
2023/04/23 03:23:01;;;;;;;11.32;2.20;;;10.90;99.90;;;;;;4995456;28;20069;-55
2023/04/23 03:25:28;;;;;;;5.68;1.38;;;10.90;99.90;;;;;;4999367;28;20058;-56
2023/04/23 03:27:55;;;;;;;11.55;1.80;;;10.90;99.90;;;;;;4994720;28;20052;-56
2023/04/23 03:30:21;;;;;;;10.13;2.22;;;10.90;99.90;;;;;;5001458;28;20050;-56
2023/04/23 03:32:49;;;;;;;10.60;3.28;;;10.90;99.90;;;;;;4993627;28;20050;-55
2023/04/23 03:35:16;;;;;;;9.48;2.10;;;10.90;99.90;;;;;;4999717;28;20049;-58
2023/04/23 03:37:42;;;;;;;10.32;1.60;;;10.90;99.90;;;;;;5010242;28;20129;-56
2023/04/23 03:40:09;;;;;;;15.27;2.17;;;10.90;99.90;;;;;;5000542;28;20057;-56
2023/04/23 03:42:36;;;;;;;6.20;1.38;;;10.90;99.90;;;;;;4991051;28;20054;-55
2023/04/23 03:45:03;;;;;;;16.85;2.25;;;10.80;99.90;;;;;;5001087;28;20072;-55
2023/04/23 03:47:30;;;;;;;9.00;1.40;;;10.80;99.90;;;;;;5010299;28;20193;-57
2023/04/23 03:49:57;;;;;;;12.68;1.85;;;10.80;99.90;;;;;;4998839;28;20096;-53
2023/04/23 03:52:24;;;;;;;9.75;1.58;;;10.80;99.90;;;;;;5010339;28;20142;-56
2023/04/23 03:54:50;;;;;;;8.05;1.65;;;10.80;99.90;;;;;;5004907;28;20621;-57
2023/04/23 03:57:17;;;;;;;15.50;3.25;;;10.80;99.90;;;;;;4992253;28;20051;-56
2023/04/23 03:59:44;;;;;;;12.43;2.10;;;10.70;99.90;;;;;;4994566;28;20133;-55
2023/04/23 04:02:10;;;;;;;9.98;2.38;;;10.70;99.90;;;;;;5006635;28;20046;-55
2023/04/23 04:04:37;;;;;;;16.48;2.10;;;10.70;99.90;;;;;;5005880;28;20065;-56
2023/04/23 04:07:06;;;;;;;11.05;3.10;;;10.70;99.90;;;;;;4995113;28;20051;-56
2023/04/23 04:09:33;;;;;;;14.23;2.00;;;10.70;99.90;;;;;;5001732;28;20046;-55
2023/04/23 04:12:00;;;;;;;11.38;1.92;;;10.80;99.90;;;;;;5001812;28;20045;-57
2023/04/23 04:14:27;;;;;;;5.95;1.98;;;10.80;99.90;;;;;;5008142;28;20092;-56
2023/04/23 04:16:54;;;;;;;9.32;2.10;;;10.80;99.90;;;;;;5009983;28;20046;-56
2023/04/23 04:19:20;;;;;;;12.13;2.00;;;10.90;99.90;;;;;;5008327;28;20046;-56
2023/04/23 04:21:47;;;;;;;9.65;2.10;;;10.80;99.90;;;;;;4998813;28;20096;-55
2023/04/23 04:24:14;;;;;;;11.18;2.22;;;10.80;99.90;;;;;;5009132;28;20140;-57
2023/04/23 04:26:40;;;;;;;8.00;1.83;;;10.80;99.90;;;;;;4999850;28;20413;-56
2023/04/23 04:29:09;;;;;;;11.48;2.90;;;10.80;99.90;;;;;;4989941;28;20082;-55
2023/04/23 04:31:36;;;;;;;9.52;2.25;;;10.70;99.90;;;;;;4995947;28;20060;-56
2023/04/23 04:34:03;;;;;;;17.67;2.60;;;10.80;99.90;;;;;;5008367;28;20050;-56
2023/04/23 04:36:30;;;;;;;5.70;2.13;;;10.80;99.90;;;;;;5004537;28;20145;-54
2023/04/23 04:38:57;;;;;;;11.10;2.38;;;10.80;99.90;;;;;;4990163;28;20418;-56
2023/04/23 04:41:24;;;;;;;6.95;1.88;;;10.80;99.90;;;;;;4993313;28;20050;-54
2023/04/23 04:43:51;;;;;;;21.58;2.38;;;10.70;99.90;;;;;;5007837;28;20104;-57
2023/04/23 04:46:19;;;;;;;11.30;1.90;;;10.70;99.90;;;;;;5001294;28;20086;-56
2023/04/23 04:48:46;;;;;;;12.52;2.50;;;10.70;99.90;;;;;;5005915;28;20070;-56
2023/04/23 04:51:13;;;;;;;22.50;2.05;;;10.60;99.90;;;;;;5003430;28;20053;-54
2023/04/23 04:53:40;;;;;;;19.23;2.70;;;10.70;99.90;;;;;;4995137;28;20058;-55
2023/04/23 04:56:07;;;;;;;9.38;2.25;;;10.70;99.90;;;;;;4995048;28;20049;-56
2023/04/23 04:58:34;;;;;;;11.35;2.45;;;10.70;99.90;;;;;;4997297;28;20054;-53
2023/04/23 05:01:00;;;;;;;13.68;2.58;;;10.70;99.90;;;;;;4992993;28;20044;-55
2023/04/23 05:03:27;;;;;;;11.63;2.10;;;10.70;99.90;;;;;;4998736;28;20050;-55
2023/04/23 05:05:55;;;;;;;15.50;3.00;;;10.70;99.90;;;;;;5004856;28;20436;-54
2023/04/23 05:08:22;;;;;;;11.35;2.45;;;10.70;99.90;;;;;;5000160;28;20046;-53
2023/04/23 05:10:53;;;;;;;8.05;1.88;;;10.70;99.90;;;;;;4992468;28;20049;-56
2023/04/23 05:13:20;;;;;;;15.48;3.22;;;10.80;99.90;;;;;;5006954;28;20050;-54
2023/04/23 05:15:46;;;;;;;10.95;2.92;;;10.80;99.90;;;;;;5001038;28;20076;-56
2023/04/23 05:18:13;;;;;;;7.65;1.52;;;10.70;99.90;;;;;;4989685;28;20097;-56
2023/04/23 05:20:41;;;;;;;10.93;2.42;;;10.70;99.90;;;;;;4995474;28;20145;-56
2023/04/23 05:23:08;;;;;;;14.35;1.95;;;10.70;99.90;;;;;;5009391;28;20050;-55
2023/04/23 05:25:35;;;;;;;11.20;2.45;;;10.70;99.90;;;;;;5003098;28;20052;-56
2023/04/23 05:28:01;;;;;;;11.40;2.22;;;10.70;99.90;;;;;;4989239;28;20054;-55
2023/04/23 05:30:28;;;;;;;7.55;2.47;;;10.60;99.90;;;;;;4993252;28;20051;-55
2023/04/23 05:32:55;;;;;;;27.70;4.57;;;10.70;99.90;;;;;;5007236;28;20670;-54
2023/04/23 05:35:22;;;;;;;13.65;2.28;;;10.70;99.90;;;;;;5002777;28;20133;-53
2023/04/23 05:37:48;;;;;;;13.18;2.10;;;10.70;99.90;;;;;;4991886;28;20524;-54
2023/04/23 05:40:15;;;;;;;13.73;2.53;;;10.70;99.90;;;;;;4991922;28;20045;-55
2023/04/23 05:42:42;;;;;;;14.15;2.83;;;10.70;99.90;;;;;;4993783;28;20528;-56
2023/04/23 05:45:09;;;;;;;15.45;2.20;;;10.70;99.90;;;;;;4990076;28;20073;-55
2023/04/23 05:47:36;;;;;;;9.93;2.25;;;10.70;99.90;;;;;;4994139;28;20042;-56
2023/04/23 05:50:04;;;;;;;9.95;3.42;;;10.60;99.90;;;;;;4989580;28;20531;-54
2023/04/23 05:52:32;;;;;;;16.15;2.85;;;10.60;99.90;;;;;;4995598;28;20052;-55
2023/04/23 05:54:59;;;;;;;13.30;2.58;;;10.60;99.90;;;;;;5006148;28;20061;-54
2023/04/23 05:57:25;;;;;;;12.55;1.90;;;10.70;99.90;;;;;;4997491;28;20140;-53
2023/04/23 05:59:52;;;;;;;7.97;2.05;;;10.70;99.90;;;;;;5007988;28;20071;-57
2023/04/23 06:02:19;;;;;;;7.10;2.00;;;10.70;99.90;;;;;;4994258;28;20062;-55
2023/04/23 06:04:49;;;;;;;12.00;3.38;;;10.70;99.90;;;;;;4987393;28;20042;-56
2023/04/23 06:07:16;;;;;;;11.10;2.22;;;10.70;99.90;;;;;;4994783;28;20546;-55
2023/04/23 06:09:43;;;;;;;13.60;1.92;;;10.70;99.90;;;;;;5007233;28;20091;-56
2023/04/23 06:12:10;;;;;;;9.85;2.30;;;10.70;99.90;;;;;;5004152;28;20072;-55
2023/04/23 06:14:37;;;;;;;9.52;2.00;;;10.80;99.90;;;;;;5006532;28;20136;-55
2023/04/23 06:17:03;;;;;;;9.68;1.48;;;10.80;99.90;;;;;;5001859;28;20046;-55
2023/04/23 06:19:30;;;;;;;12.05;1.80;;;10.80;99.90;;;;;;4989906;28;20045;-56
2023/04/23 06:21:57;;;;;;;11.30;2.38;;;10.90;99.90;;;;;;4997286;28;20058;-57
2023/04/23 06:24:23;;;;;;;16.92;2.00;;;10.90;99.90;;;;;;5003989;28;20081;-57
2023/04/23 06:26:50;;;;;;;9.02;1.77;;;11.00;99.90;;;;;;5001071;28;20069;-57
2023/04/23 06:29:17;;;;;;;9.25;2.05;;;11.00;99.90;;;;;;4994572;28;20105;-53
2023/04/23 06:31:44;;;;;;;12.88;2.05;;;11.00;99.90;;;;;;4991526;28;20137;-56
2023/04/23 06:34:11;;;;;;;11.30;1.90;;;11.00;99.90;;;;;;4997504;28;20080;-56
2023/04/23 06:36:37;;;;;;;9.50;1.90;;;11.00;99.90;;;;;;5002068;28;20077;-54
2023/04/23 06:39:04;;;;;;;7.55;1.50;;;11.00;99.90;;;;;;4997584;28;20046;-55
2023/04/23 06:41:31;;;;;;;9.65;1.80;;;11.00;99.90;;;;;;5005892;28;20492;-56
2023/04/23 06:43:58;;;;;;;11.93;2.50;;;11.10;99.90;;;;;;4997095;28;20221;-57
2023/04/23 06:46:24;;;;;;;6.43;1.77;;;11.10;99.90;;;;;;5006024;28;20423;-56
2023/04/23 06:48:51;;;;;;;18.63;2.53;;;11.20;99.90;;;;;;4652674;28;10000033;-55
2023/04/23 06:51:18;;;;;;;11.45;2.05;;;11.20;99.90;;;;;;4985678;28;20091;-56
2023/04/23 06:53:45;;;;;;;8.05;1.98;;;11.30;99.90;;;;;;4974549;28;20043;-55
2023/04/23 06:56:12;;;;;;;13.95;2.65;;;11.40;99.90;;;;;;5007463;28;20131;-55
2023/04/23 06:58:40;;;;;;;6.38;1.38;;;11.40;99.90;;;;;;5003077;28;20041;-55
2023/04/23 07:01:06;;;;;;;9.82;1.85;;;11.40;99.90;;;;;;4989859;28;20120;-57
2023/04/23 07:03:35;;;;;;;7.45;1.50;;;11.40;99.90;;;;;;4993801;28;20038;-56
2023/04/23 07:06:02;;;;;;;9.45;1.70;;;11.40;99.90;;;;;;5007918;28;20524;-56
2023/04/23 07:08:29;;;;;;;13.07;1.85;;;11.50;99.90;;;;;;5004243;28;20060;-54
2023/04/23 07:10:55;;;;;;;4.22;1.42;;;11.50;99.90;;;;;;4998749;28;20060;-54
2023/04/23 07:13:23;;;;;;;6.38;1.50;;;11.60;99.90;;;;;;4997593;28;20050;-53
2023/04/23 07:15:49;;;;;;;9.43;1.80;;;11.70;99.90;;;;;;5004841;28;20477;-55
2023/04/23 07:18:16;;;;;;;10.70;1.50;;;11.70;99.90;;;;;;5002527;28;20050;-54
2023/04/23 07:20:43;;;;;;;15.45;2.20;;;11.80;99.90;;;;;;4999629;28;20431;-56
2023/04/23 07:23:10;;;;;;;7.40;1.80;;;11.80;99.90;;;;;;5005502;28;20133;-54
2023/04/23 07:25:37;;;;;;;8.38;1.67;;;11.90;99.90;;;;;;4990976;28;21440;-57
2023/04/23 07:28:03;;;;;;;8.25;1.48;;;11.90;99.90;;;;;;5004300;28;20156;-56
2023/04/23 07:30:30;;;;;;;6.60;2.33;;;12.00;99.90;;;;;;4997049;28;20137;-55
2023/04/23 07:32:57;;;;;;;10.90;1.60;;;12.00;99.90;;;;;;5006245;28;20320;-55
2023/04/23 07:35:25;;;;;;;10.57;2.15;;;12.00;99.90;;;;;;4994927;28;20408;-55
2023/04/23 07:37:54;;;;;;;6.78;1.33;;;12.10;99.90;;;;;;5008038;28;20574;-55
2023/04/23 07:40:21;;;;;;;12.60;2.22;;;12.20;99.90;;;;;;5000996;28;20471;-57
2023/04/23 07:42:49;;;;;;;5.82;1.90;;;12.10;99.90;;;;;;4987127;28;20070;-55
2023/04/23 07:45:16;;;;;;;6.38;1.38;;;12.10;99.90;;;;;;4992441;28;20046;-56
2023/04/23 07:47:44;;;;;;;6.70;2.25;;;12.20;99.90;;;;;;5010360;28;20161;-53
2023/04/23 07:50:11;;;;;;;8.32;1.67;;;12.10;99.90;;;;;;5007418;28;20042;-51
2023/04/23 07:52:38;;;;;;;13.68;2.80;;;12.10;99.90;;;;;;4992220;28;20093;-55
2023/04/23 07:55:05;;;;;;;5.57;1.95;;;12.20;99.90;;;;;;4998356;28;20089;-55
2023/04/23 07:57:32;;;;;;;11.98;1.95;;;12.20;99.90;;;;;;5006975;28;20570;-57
2023/04/23 07:59:59;;;;;;;6.57;1.90;;;12.20;99.90;;;;;;5002767;28;20262;-54
2023/04/23 08:02:26;;;;;;;6.63;1.58;;;12.20;99.90;;;;;;4996368;28;20429;-57
2023/04/23 08:04:53;;;;;;;6.88;1.80;;;12.20;99.90;;;;;;4995917;28;20158;-54
2023/04/23 08:07:20;;;;;;;9.80;1.80;;;12.20;99.90;;;;;;4997337;28;20054;-51
2023/04/23 08:09:47;;;;;;;10.38;1.58;;;12.20;99.90;;;;;;4991959;28;20073;-55
2023/04/23 08:12:16;;;;;;;5.72;1.55;;;12.30;99.90;;;;;;5010237;28;20056;-56
2023/04/23 08:14:43;;;;;;;6.20;1.58;;;12.40;99.90;;;;;;5007132;28;20138;-53
2023/04/23 08:17:10;;;;;;;9.75;1.75;;;12.30;99.90;;;;;;5001372;28;20061;-52
2023/04/23 08:19:36;;;;;;;9.50;2.47;;;12.30;99.90;;;;;;4993175;28;20129;-55
2023/04/23 08:22:03;;;;;;;8.65;1.95;;;12.20;99.90;;;;;;4999021;28;20136;-54
2023/04/23 08:24:30;;;;;;;10.55;1.70;;;12.20;99.90;;;;;;5009522;28;20073;-55
2023/04/23 08:26:57;;;;;;;6.13;1.77;;;12.20;99.90;;;;;;5001907;28;20242;-55
2023/04/23 08:29:24;;;;;;;10.82;2.25;;;12.10;99.90;;;;;;4988927;28;20309;-54
2023/04/23 08:31:50;;;;;;;16.15;2.63;;;12.10;99.90;;;;;;5002259;28;20081;-55
2023/04/23 08:34:17;;;;;;;14.95;2.40;;;12.10;99.90;;;;;;4971647;28;20077;-55
2023/04/23 08:36:45;;;;;;;4.82;1.70;;;12.00;99.90;;;;;;4992481;28;20080;-53
2023/04/23 08:39:12;;;;;;;11.63;1.90;;;12.10;99.90;;;;;;5007826;28;20053;-56
2023/04/23 08:41:41;;;;;;;8.40;1.92;;;12.10;99.90;;;;;;5003981;28;20046;-54
2023/04/23 08:44:14;;;;;;;5.68;1.80;;;12.20;99.90;;;;;;4991937;28;20050;-54
2023/04/23 08:46:42;;;;;;;9.82;1.92;;;12.20;99.90;;;;;;4971436;28;20121;-55
2023/04/23 08:49:12;;;;;;;11.77;2.03;;;12.20;99.90;;;;;;4990159;28;20050;-53
2023/04/23 08:51:41;;;;;;;12.20;3.15;;;12.30;99.90;;;;;;5004215;28;20064;-55
2023/04/23 08:54:08;;;;;;;9.80;2.20;;;12.20;99.90;;;;;;5003845;28;20045;-54
2023/04/23 08:56:36;;;;;;;7.07;1.83;;;12.20;99.90;;;;;;4999567;28;20417;-51
2023/04/23 08:59:03;;;;;;;14.55;3.65;;;12.20;99.90;;;;;;4996291;28;20065;-55
2023/04/23 09:01:29;;;;;;;6.65;2.00;;;12.20;99.90;;;;;;4991972;28;20064;-54
2023/04/23 09:03:56;;;;;;;11.85;2.72;;;12.10;99.90;;;;;;4997197;28;20145;-53
2023/04/23 09:06:23;;;;;;;11.65;4.00;;;12.10;99.90;;;;;;5005241;28;20452;-53
2023/04/23 09:08:50;;;;;;;10.73;2.13;;;12.10;99.90;;;;;;4999140;28;20057;-52
2023/04/23 09:11:16;;;;;;;11.70;3.03;;;12.10;99.90;;;;;;4989637;28;20133;-54
2023/04/23 09:13:43;;;;;;;13.65;2.70;;;12.10;99.90;;;;;;4998958;28;20613;-54
2023/04/23 09:16:10;;;;;;;12.05;3.10;;;12.20;99.90;;;;;;5006843;28;20050;-54
2023/04/23 09:18:37;;;;;;;6.50;1.48;;;12.20;99.90;;;;;;4994827;28;20051;-52
2023/04/23 09:21:03;;;;;;;11.73;2.85;;;12.20;99.90;;;;;;4991271;28;20050;-55
2023/04/23 09:23:30;;;;;;;13.00;2.78;;;12.20;99.90;;;;;;5003048;28;20148;-53
2023/04/23 09:25:57;;;;;;;9.90;1.63;;;12.30;99.90;;;;;;4989507;28;20070;-54
2023/04/23 09:28:34;;;;;;;9.82;2.00;;;12.30;99.90;;;;;;4993144;28;20046;-54
2023/04/23 09:31:01;;;;;;;11.93;2.25;;;12.30;99.90;;;;;;5007226;28;20073;-54
2023/04/23 09:33:28;;;;;;;5.82;1.52;;;12.30;99.90;;;;;;4994653;28;20078;-54
2023/04/23 09:35:55;;;;;;;10.40;1.90;;;12.20;99.90;;;;;;4988716;28;20046;-55
2023/04/23 09:38:21;;;;;;;22.88;2.70;;;12.20;99.90;;;;;;4992642;28;20049;-52
2023/04/23 09:40:49;;;;;;;7.68;1.70;;;12.10;99.90;;;;;;4987924;28;20403;-54
2023/04/23 09:43:16;;;;;;;8.35;1.88;;;12.10;99.90;;;;;;4992519;28;20052;-55
2023/04/23 09:45:49;;;;;;;5.93;1.88;;;11.90;99.90;;;;;;4659688;28;10000185;-52
2023/04/23 09:48:16;;;;;;;10.07;2.05;;;11.80;99.90;;;;;;5004080;28;20506;-55
2023/04/23 09:50:42;;;;;;;6.82;2.03;;;11.70;99.90;;;;;;4996813;28;20099;-54
2023/04/23 09:53:09;;;;;;;6.70;1.88;;;11.50;99.90;;;;;;4991202;28;20049;-54
2023/04/23 09:55:41;;;;;;;7.45;1.98;;;11.30;99.90;;;;;;4995081;28;20103;-55
2023/04/23 09:58:13;;;;;;;5.57;1.73;;;11.20;99.90;;;;;;4990313;28;20053;-56
2023/04/23 10:00:40;;;;;;;6.40;2.00;;;11.20;99.90;;;;;;4998506;28;20042;-55
2023/04/23 10:03:08;;;;;;;9.15;2.70;;;11.30;99.90;;;;;;5007212;28;20077;-57
2023/04/23 10:05:40;;;;;;;7.72;2.25;;;11.30;99.90;;;;;;4997136;28;20042;-53
2023/04/23 10:08:27;;;;;;;11.70;2.00;;;11.40;99.90;;;;;;5005633;28;20507;-54
2023/04/23 10:10:53;;;;;;;7.28;1.83;;;11.50;99.90;;;;;;4998350;28;20050;-54
2023/04/23 10:13:39;;;;;;;4.75;1.17;;;11.50;99.90;;;;;;4989919;28;20081;-54
2023/04/23 10:16:06;;;;;;;6.18;1.67;;;11.50;99.90;;;;;;4999668;28;20050;-55
2023/04/23 10:18:49;;;;;;;5.00;1.20;;;11.60;99.90;;;;;;4989330;28;20050;-53
2023/04/23 10:21:16;;;;;;;6.75;2.38;;;11.70;99.90;;;;;;4979887;28;20452;-56
2023/04/23 10:23:43;;;;;;;3.45;1.60;;;11.70;99.90;;;;;;5006091;28;20093;-53
2023/04/23 10:26:11;;;;;;;4.82;1.00;;;11.70;99.90;;;;;;4992378;28;20079;-56
2023/04/23 10:28:37;;;;;;;1.63;0.77;;;11.70;99.90;;;;;;5006471;28;20136;-55
2023/04/23 10:31:05;;;;;;;5.50;1.10;;;11.60;99.90;;;;;;5002563;28;20121;-56
2023/04/23 10:33:31;;;;;;;3.88;1.00;;;11.50;99.90;;;;;;4996250;28;20461;-55
2023/04/23 10:36:11;;;;;;;5.85;1.15;;;11.60;99.90;;;;;;5007468;28;20053;-55
2023/04/23 10:38:40;;;;;;;4.28;1.00;;;11.60;99.90;;;;;;5010704;28;20050;-54
2023/04/23 10:41:23;;;;;;;6.25;2.10;;;11.70;99.90;;;;;;4998349;28;20085;-55
2023/04/23 10:43:52;;;;;;;2.40;1.15;;;11.80;99.90;;;;;;5011760;28;20563;-55
2023/04/23 10:46:31;;;;;;;2.97;1.13;;;11.90;99.90;;;;;;5007104;28;20512;-55
2023/04/23 10:49:15;;;;;;;4.60;0.95;;;11.90;99.90;;;;;;4992285;28;20050;-55
2023/04/23 10:51:45;;;;;;;8.35;1.00;;;11.90;99.90;;;;;;4998065;28;20058;-54
2023/04/23 10:54:32;;;;;;;2.75;0.93;;;11.90;99.90;;;;;;4997660;28;20054;-55
2023/04/23 10:57:00;;;;;;;8.00;1.20;;;12.00;99.90;;;;;;5004047;28;20057;-53
2023/04/23 10:59:30;;;;;;;4.03;1.00;;;12.00;99.90;;;;;;4991832;28;20285;-56
2023/04/23 11:02:01;;;;;;;3.28;1.80;;;12.00;99.90;;;;;;5004276;28;20487;-54
2023/04/23 11:04:28;;;;;;;4.32;1.95;;;11.80;99.90;;;;;;4991733;28;20050;-55
2023/04/23 11:06:57;;;;;;;4.50;2.00;;;11.70;99.90;;;;;;5003475;28;20049;-54
2023/04/23 11:09:31;;;;;;;4.00;1.73;;;11.80;99.90;;;;;;4991524;28;20046;-55
2023/04/23 11:12:02;;;;;;;2.83;1.65;;;11.70;99.90;;;;;;4994286;28;20514;-55
2023/04/23 11:14:42;;;;;;;5.07;2.30;;;11.70;99.90;;;;;;5010666;28;20140;-53
2023/04/23 11:17:14;;;;;;;6.00;2.35;;;11.60;99.90;;;;;;5006937;28;20112;-54
2023/04/23 11:19:41;;;;;;;5.88;2.28;;;11.60;99.90;;;;;;4991290;28;20493;-57
2023/04/23 11:22:17;;;;;;;2.67;1.85;;;11.70;99.90;;;;;;4978217;28;20058;-54
2023/04/23 11:24:45;;;;;;;8.45;2.10;;;11.70;99.90;;;;;;5008858;28;20625;-59
2023/04/23 11:27:16;;;;;;;3.80;1.90;;;11.60;99.90;;;;;;5001211;28;20046;-53
2023/04/23 11:29:44;;;;;;;4.95;2.20;;;11.60;99.90;;;;;;5007847;28;20088;-55
2023/04/23 11:32:12;;;;;;;13.77;2.50;;;11.70;99.90;;;;;;5001862;28;20042;-55
2023/04/23 11:34:41;;;;;;;6.18;2.47;;;11.70;99.90;;;;;;5010630;28;20416;-55
2023/04/23 11:37:09;;;;;;;10.07;2.88;;;11.70;99.90;;;;;;5004851;28;20047;-54
2023/04/23 11:39:37;;;;;;;8.65;2.10;;;11.90;99.90;;;;;;5004368;28;20046;-55
2023/04/23 11:42:04;;;;;;;7.40;1.80;;;12.00;99.90;;;;;;5006786;28;20460;-55
2023/04/23 11:44:31;;;;;;;4.13;1.75;;;11.90;99.90;;;;;;5002298;28;20136;-56
2023/04/23 11:47:01;;;;;;;5.72;1.80;;;12.00;99.90;;;;;;5006349;28;20048;-56
2023/04/23 11:49:28;;;;;;;5.30;1.73;;;11.90;99.90;;;;;;5001167;28;20050;-56
2023/04/23 11:51:57;;;;;;;5.47;1.70;;;12.00;99.90;;;;;;4992120;28;20050;-55
2023/04/23 11:54:27;;;;;;;5.35;2.20;;;12.10;99.90;;;;;;4998244;28;20049;-55
2023/04/23 11:56:54;;;;;;;3.15;1.63;;;12.00;99.90;;;;;;5009773;28;20056;-54
2023/04/23 11:59:21;;;;;;;3.42;1.50;;;11.90;99.90;;;;;;5002073;28;20056;-55
2023/04/23 12:01:50;;;;;;;6.00;2.03;;;11.80;99.90;;;;;;4989742;28;20050;-55
2023/04/23 12:04:38;;;;;;;3.88;1.80;;;11.70;99.90;;;;;;5004137;28;20046;-57
2023/04/23 12:07:07;;;;;;;3.28;1.80;;;11.70;99.90;;;;;;5009681;28;20053;-53
2023/04/23 12:09:48;;;;;;;3.08;2.08;;;11.60;99.90;;;;;;5008405;28;20085;-55
2023/04/23 12:12:15;;;;;;;4.30;1.40;;;11.50;99.90;;;;;;5009951;28;20050;-54
2023/04/23 12:14:42;;;;;;;2.88;1.10;;;11.30;99.90;;;;;;5002235;28;20043;-53
2023/04/23 12:17:10;;;;;;;2.45;1.48;;;11.10;99.90;;;;;;4974464;28;20137;-55
2023/04/23 12:19:37;;;;;;;8.95;2.55;;;11.00;99.90;;;;;;4997098;28;20043;-55
2023/04/23 12:22:04;;;;;;;4.65;1.30;;;11.10;99.90;;;;;;5009548;28;20519;-59
2023/04/23 12:24:47;;;;;;;2.55;1.25;;;11.30;99.90;;;;;;5006196;28;20046;-56
2023/04/23 12:27:14;;;;;;;3.22;1.30;;;11.20;99.90;;;;;;4989654;28;20210;-54
2023/04/23 12:29:41;;;;;;;5.30;1.55;;;11.10;99.90;;;;;;5001525;28;20582;-55
2023/04/23 12:32:10;;;;;;;2.55;1.98;;;11.10;99.90;;;;;;4990584;28;20104;-54
2023/04/23 12:34:36;;;;;;;9.32;3.47;;;11.20;99.90;;;;;;4999244;28;20137;-55
2023/04/23 12:37:05;;;;;;;4.60;1.90;;;11.20;99.90;;;;;;5009411;28;20153;-54
2023/04/23 12:39:33;;;;;;;7.15;3.35;;;11.10;99.90;;;;;;5000945;28;20085;-55
2023/04/23 12:42:03;;;;;;;4.68;2.30;;;11.20;99.90;;;;;;5004758;28;20397;-55
2023/04/23 12:44:34;;;;;;;6.40;2.25;;;11.30;99.90;;;;;;5004976;28;20396;-56
2023/04/23 12:47:03;;;;;;;4.53;2.05;;;11.40;99.90;;;;;;4994585;28;20081;-55